Time;durP1;ratioP1;P1;durP2;ratioP2;P2;SDS_P1;SDS_P2;PMS_P1;PMS_P2;Temp;Humidity;BMP_temperature;BMP_pressure;BME280_temperature;BME280_humidity;BME280_pressure;Samples;Min_cycle;Max_cycle;Signal;HPM_P1;HPM_P2
2021/10/15 00:01:41;;;;;;;11.93;7.78;;;;;;;4.19;95.67;96446.31;6367552;22;20422;-60
2021/10/15 00:04:06;;;;;;;10.60;8.07;;;;;;;4.15;96.19;96440.47;6367297;22;20006;-60
2021/10/15 00:06:32;;;;;;;16.05;9.30;;;;;;;4.16;96.08;96434.31;6366874;22;20006;-60
2021/10/15 00:08:57;;;;;;;14.90;9.20;;;;;;;4.18;95.50;96432.47;6367330;22;20003;-60
2021/10/15 00:11:23;;;;;;;28.33;13.70;;;;;;;4.18;96.23;96427.25;6367092;22;20002;-60
2021/10/15 00:13:48;;;;;;;21.23;12.05;;;;;;;4.19;96.79;96426.34;6366639;22;20386;-60
2021/10/15 00:16:13;;;;;;;17.27;10.65;;;;;;;4.19;96.82;96417.66;6366666;22;20055;-60
2021/10/15 00:18:39;;;;;;;16.02;9.52;;;;;;;4.17;97.58;96415.16;6366782;22;20073;-60
2021/10/15 00:21:05;;;;;;;22.55;10.80;;;;;;;4.20;97.82;96406.31;6366677;22;20002;-60
2021/10/15 00:23:30;;;;;;;12.70;8.48;;;;;;;4.17;97.89;96409.94;6367149;22;20025;-60
2021/10/15 00:25:56;;;;;;;11.80;8.68;;;;;;;4.15;97.78;96403.97;6367268;22;20005;-60
2021/10/15 00:28:21;;;;;;;8.85;7.90;;;;;;;4.14;98.27;96399.69;6367272;22;20002;-60
2021/10/15 00:30:47;;;;;;;11.13;7.80;;;;;;;4.19;97.90;96402.03;6367052;22;20334;-61
2021/10/15 00:33:12;;;;;;;8.05;7.25;;;;;;;4.24;97.56;96398.25;6366574;22;19999;-60
2021/10/15 00:35:39;;;;;;;8.48;7.22;;;;;;;4.24;97.21;96398.25;6366864;22;20034;-60
2021/10/15 00:38:04;;;;;;;10.77;7.28;;;;;;;4.24;97.51;96398.25;6366633;22;20006;-61
2021/10/15 00:40:29;;;;;;;11.02;6.38;;;;;;;4.28;97.34;96393.72;6366706;22;20009;-60
2021/10/15 00:42:55;;;;;;;9.00;6.75;;;;;;;4.28;96.89;96404.13;6367566;22;19999;-60
2021/10/15 00:45:20;;;;;;;9.45;6.28;;;;;;;4.21;97.80;96393.19;6366570;22;20006;-61
2021/10/15 00:47:46;;;;;;;8.40;6.57;;;;;;;4.20;97.21;96395.88;6366832;22;20014;-61
2021/10/15 00:50:11;;;;;;;14.15;6.47;;;;;;;4.14;97.40;96390.09;6366641;22;20048;-60
2021/10/15 00:52:37;;;;;;;6.47;5.88;;;;;;;4.08;97.93;96386.97;6367016;22;20002;-60
2021/10/15 00:55:03;;;;;;;7.50;5.45;;;;;;;4.05;97.77;96385.41;6366649;22;20026;-60
2021/10/15 00:57:29;;;;;;;8.68;6.07;;;;;;;4.04;97.50;96388.06;6366411;22;20388;-61
2021/10/15 00:59:54;;;;;;;6.80;6.10;;;;;;;4.01;97.32;96379.50;6367423;22;20011;-60
2021/10/15 01:02:20;;;;;;;6.75;6.10;;;;;;;3.99;96.53;96381.34;6366332;22;20006;-61
2021/10/15 01:04:46;;;;;;;6.40;5.80;;;;;;;3.98;96.82;96377.06;6366565;22;20002;-60
2021/10/15 01:07:11;;;;;;;7.43;5.82;;;;;;;3.94;97.56;96377.31;6366654;22;20002;-60
2021/10/15 01:09:37;;;;;;;10.45;6.47;;;;;;;3.88;97.76;96370.69;6366600;22;20002;-61
2021/10/15 01:12:04;;;;;;;8.90;5.90;;;;;;;3.85;97.66;96376.06;6366625;22;20006;-60
2021/10/15 01:14:30;;;;;;;7.53;6.03;;;;;;;3.83;97.70;96370.09;6366563;22;20013;-60
2021/10/15 01:17:00;;;;;;;6.72;5.43;;;;;;;3.84;97.38;96376.97;6366378;22;20003;-60
2021/10/15 01:19:25;;;;;;;7.03;6.32;;;;;;;3.80;97.35;96371.13;6366578;22;20022;-60
2021/10/15 01:21:50;;;;;;;6.70;6.10;;;;;;;3.81;97.75;96367.59;6367149;22;20010;-61
2021/10/15 01:24:17;;;;;;;6.32;5.82;;;;;;;3.82;97.38;96365.81;6366251;22;20002;-60
2021/10/15 01:26:43;;;;;;;7.03;6.38;;;;;;;3.82;97.12;96366.66;6366443;22;20010;-60
2021/10/15 01:29:08;;;;;;;6.60;6.00;;;;;;;3.78;97.38;96362.53;6366180;22;19998;-60
2021/10/15 01:31:35;;;;;;;7.55;6.82;;;;;;;3.79;97.03;96360.75;6365933;22;20009;-61
2021/10/15 01:34:00;;;;;;;10.00;6.13;;;;;;;3.78;96.65;96359.09;6366796;22;19998;-60
2021/10/15 01:36:27;;;;;;;6.30;5.80;;;;;;;3.78;97.49;96359.09;6365997;22;20077;-61
2021/10/15 01:38:52;;;;;;;7.13;6.53;;;;;;;3.77;98.67;96347.00;6366322;22;20345;-60
2021/10/15 01:41:18;;;;;;;7.45;6.63;;;;;;;3.72;98.25;96350.69;6366281;22;19998;-60
2021/10/15 01:43:43;;;;;;;9.13;6.78;;;;;;;3.69;97.85;96340.44;6366095;22;20044;-60
2021/10/15 01:46:09;;;;;;;7.65;6.70;;;;;;;3.67;97.70;96346.66;6366256;22;20074;-60
2021/10/15 01:48:34;;;;;;;9.25;6.32;;;;;;;3.62;97.76;96343.47;6365911;22;20034;-60
2021/10/15 01:51:00;;;;;;;7.03;6.32;;;;;;;3.59;97.94;96339.25;6366418;22;20077;-60
2021/10/15 01:53:25;;;;;;;5.68;5.18;;;;;;;3.63;97.05;96345.97;6365951;22;19998;-61
2021/10/15 01:55:50;;;;;;;5.20;4.80;;;;;;;3.62;97.21;96338.25;6365946;22;20009;-61
2021/10/15 01:58:17;;;;;;;14.63;6.65;;;;;;;3.58;97.31;96338.41;6366015;22;20006;-60
2021/10/15 02:00:43;;;;;;;8.45;6.40;;;;;;;3.59;96.98;96339.25;6365412;22;20081;-61
2021/10/15 02:03:09;;;;;;;8.27;5.70;;;;;;;3.56;97.22;96335.06;6366507;22;20346;-60
2021/10/15 02:05:34;;;;;;;8.63;7.15;;;;;;;3.55;97.97;96338.59;6366142;22;20009;-60
2021/10/15 02:08:00;;;;;;;6.38;5.78;;;;;;;3.53;98.33;96343.00;6366407;22;20002;-60
2021/10/15 02:10:25;;;;;;;6.40;5.82;;;;;;;3.53;98.36;96342.19;6366184;22;20003;-60
2021/10/15 02:12:52;;;;;;;6.00;5.20;;;;;;;3.54;98.48;96336.06;6365903;22;20006;-60
2021/10/15 02:15:17;;;;;;;6.28;5.68;;;;;;;3.52;97.66;96343.09;6365854;22;20006;-60
2021/10/15 02:17:43;;;;;;;6.45;5.68;;;;;;;3.49;97.94;96338.06;6363543;22;20395;-60
2021/10/15 02:20:12;;;;;;;5.97;5.35;;;;;;;3.49;98.19;96325.88;6364837;22;20335;-60
2021/10/15 02:22:41;;;;;;;6.07;5.55;;;;;;;3.52;97.52;96341.34;6365989;22;20078;-61
2021/10/15 02:25:09;;;;;;;5.63;5.22;;;;;;;3.54;97.79;96333.44;6364366;22;19998;-61
2021/10/15 02:27:34;;;;;;;9.95;5.50;;;;;;;3.52;98.65;96333.53;6365658;22;20002;-60
2021/10/15 02:30:00;;;;;;;5.68;5.18;;;;;;;3.54;98.32;96331.69;6365547;22;20342;-61
2021/10/15 02:32:26;;;;;;;5.65;5.18;;;;;;;3.47;98.17;96319.91;6365798;22;20411;-60
2021/10/15 02:34:52;;;;;;;5.60;5.20;;;;;;;3.44;98.39;96326.16;6365659;22;20429;-60
2021/10/15 02:37:17;;;;;;;5.50;5.05;;;;;;;3.40;98.04;96322.00;6365017;22;20017;-60
2021/10/15 02:39:42;;;;;;;5.32;4.85;;;;;;;3.38;97.81;96316.03;6365651;22;19998;-60
2021/10/15 02:42:08;;;;;;;5.72;5.22;;;;;;;3.39;97.65;96306.47;6365012;22;19998;-61
2021/10/15 02:44:34;;;;;;;5.03;4.63;;;;;;;3.41;97.52;96312.44;6364899;22;20014;-61
2021/10/15 02:47:00;;;;;;;5.85;5.00;;;;;;;3.36;98.16;96304.06;6365923;22;20330;-61
2021/10/15 02:49:25;;;;;;;5.22;4.82;;;;;;;3.36;97.98;96301.44;6365446;22;20041;-61
2021/10/15 02:51:51;;;;;;;5.63;5.13;;;;;;;3.40;97.71;96297.75;6365830;22;20002;-61
2021/10/15 02:54:16;;;;;;;5.30;4.90;;;;;;;3.38;97.80;96294.41;6365497;22;20434;-60
2021/10/15 02:56:42;;;;;;;7.32;5.05;;;;;;;3.30;97.99;96289.59;6365539;22;20006;-61
2021/10/15 02:59:08;;;;;;;5.03;4.70;;;;;;;3.30;98.32;96293.03;6364622;22;20002;-60
2021/10/15 03:01:34;;;;;;;5.35;4.85;;;;;;;3.33;97.85;96292.03;6366232;22;20223;-60
2021/10/15 03:03:59;;;;;;;5.03;4.63;;;;;;;3.39;97.97;96286.47;6365211;22;20013;-61
2021/10/15 03:06:24;;;;;;;5.55;5.05;;;;;;;3.41;98.63;96289.00;6365280;22;20377;-61
2021/10/15 03:08:50;;;;;;;5.70;5.22;;;;;;;3.36;98.29;96286.66;6365695;22;20006;-61
2021/10/15 03:11:15;;;;;;;12.88;8.50;;;;;;;3.39;98.57;96291.69;6366239;22;20003;-61
2021/10/15 03:13:41;;;;;;;7.93;7.05;;;;;;;3.40;98.85;96280.34;6367698;22;20093;-60
2021/10/15 03:16:06;;;;;;;8.57;6.65;;;;;;;3.37;98.58;96282.31;6367756;22;20006;-61
2021/10/15 03:18:31;;;;;;;15.07;6.68;;;;;;;3.32;98.18;96279.13;6367725;22;20026;-61
2021/10/15 03:20:57;;;;;;;12.10;7.25;;;;;;;3.32;98.11;96277.34;6367955;22;20010;-61
2021/10/15 03:23:22;;;;;;;12.20;7.93;;;;;;;3.28;98.29;96274.03;6367374;22;20002;-61
2021/10/15 03:25:48;;;;;;;9.82;7.65;;;;;;;3.28;97.46;96265.41;6367841;22;20034;-61
2021/10/15 03:28:13;;;;;;;10.60;7.35;;;;;;;3.24;97.62;96262.13;6367424;22;20073;-61
2021/10/15 03:30:38;;;;;;;7.40;6.00;;;;;;;3.25;97.80;96265.59;6367451;22;20069;-61
2021/10/15 03:33:05;;;;;;;9.73;6.38;;;;;;;3.27;98.12;96264.56;6367712;22;20034;-61
2021/10/15 03:35:31;;;;;;;10.55;6.97;;;;;;;3.26;97.38;96267.25;6367586;22;20013;-61
2021/10/15 03:37:56;;;;;;;8.13;6.05;;;;;;;3.27;97.45;96256.75;6367317;22;20077;-61
2021/10/15 03:40:22;;;;;;;6.75;5.55;;;;;;;3.29;97.37;96257.50;6367531;22;19998;-61
2021/10/15 03:42:47;;;;;;;7.93;6.35;;;;;;;3.29;97.11;96264.50;6367161;22;20006;-61
2021/10/15 03:45:13;;;;;;;6.55;5.80;;;;;;;3.31;97.72;96260.03;6367292;22;20021;-61
2021/10/15 03:47:39;;;;;;;6.28;5.68;;;;;;;3.29;97.83;96256.69;6367581;22;20346;-61
2021/10/15 03:50:06;;;;;;;7.38;5.63;;;;;;;3.27;97.31;96255.94;6367356;22;20002;-61
2021/10/15 03:52:31;;;;;;;10.88;6.95;;;;;;;3.27;98.78;96258.53;6367539;22;20003;-61
2021/10/15 03:54:56;;;;;;;7.20;5.80;;;;;;;3.22;98.26;96253.56;6367335;22;20029;-61
2021/10/15 03:57:22;;;;;;;10.00;6.20;;;;;;;3.20;98.04;96250.22;6367075;22;20413;-61
2021/10/15 03:59:48;;;;;;;6.93;5.38;;;;;;;3.21;98.44;96251.88;6367013;22;20007;-61
2021/10/15 04:02:13;;;;;;;7.13;6.03;;;;;;;3.13;98.91;96249.69;6367539;22;20082;-61
2021/10/15 04:04:39;;;;;;;5.72;5.15;;;;;;;3.14;98.90;96243.56;6367575;22;20338;-61
2021/10/15 04:07:04;;;;;;;5.80;5.28;;;;;;;3.20;98.35;96245.00;6366299;22;20309;-61
2021/10/15 04:09:29;;;;;;;5.22;4.82;;;;;;;3.23;98.04;96238.81;6366896;22;20498;-61
2021/10/15 04:11:56;;;;;;;5.72;5.13;;;;;;;3.22;97.94;96234.53;6367118;22;20004;-61
2021/10/15 04:14:22;;;;;;;5.97;5.05;;;;;;;3.15;98.55;96232.22;6367641;22;19998;-61
2021/10/15 04:16:47;;;;;;;5.85;5.05;;;;;;;3.11;98.93;96230.72;6367182;22;20010;-61
2021/10/15 04:19:12;;;;;;;5.75;5.10;;;;;;;3.12;99.41;96237.59;6367182;22;20018;-61
2021/10/15 04:21:38;;;;;;;5.10;4.70;;;;;;;3.17;99.53;96232.16;6367154;22;20006;-62
2021/10/15 04:24:03;;;;;;;6.00;4.82;;;;;;;3.23;99.97;96237.03;6366980;22;20039;-61
2021/10/15 04:26:29;;;;;;;5.68;5.10;;;;;;;3.27;100.00;96237.72;6366645;22;20006;-61
2021/10/15 04:28:54;;;;;;;5.93;5.38;;;;;;;3.28;100.00;96242.00;6366832;22;20033;-61
2021/10/15 04:31:20;;;;;;;5.50;5.10;;;;;;;3.30;100.00;96240.16;6366269;22;20005;-61
2021/10/15 04:33:45;;;;;;;6.57;6.07;;;;;;;3.28;100.00;96245.41;6366815;22;20002;-61
2021/10/15 04:36:10;;;;;;;5.90;5.45;;;;;;;3.26;100.00;96241.25;6366567;22;20197;-61
2021/10/15 04:38:36;;;;;;;5.43;4.78;;;;;;;3.30;99.92;96240.97;6366887;22;20068;-61
2021/10/15 04:41:01;;;;;;;6.35;5.55;;;;;;;3.34;99.96;96236.44;6366327;22;20030;-61
2021/10/15 04:43:27;;;;;;;6.07;4.53;;;;;;;3.32;100.00;96238.28;6366433;22;20013;-61
2021/10/15 04:45:52;;;;;;;5.70;4.97;;;;;;;3.30;100.00;96229.72;6366594;22;20483;-61
2021/10/15 04:48:18;;;;;;;8.45;5.40;;;;;;;3.28;100.00;96236.78;6366451;22;20401;-61
2021/10/15 04:50:43;;;;;;;5.43;5.03;;;;;;;3.26;100.00;96236.03;6366011;22;20007;-61
2021/10/15 04:53:08;;;;;;;4.95;4.63;;;;;;;3.21;100.00;96238.06;6367285;22;20033;-61
2021/10/15 04:55:35;;;;;;;10.63;5.10;;;;;;;3.12;100.00;96229.81;6366064;22;20009;-61
2021/10/15 04:58:01;;;;;;;5.78;5.13;;;;;;;3.12;100.00;96234.19;6367163;22;20013;-61
2021/10/15 05:00:27;;;;;;;5.55;5.05;;;;;;;3.12;99.98;96229.81;6366972;22;20006;-61
2021/10/15 05:02:53;;;;;;;6.00;5.40;;;;;;;3.11;99.86;96222.91;6366578;22;20430;-61
2021/10/15 05:05:21;;;;;;;6.72;5.40;;;;;;;3.08;100.00;96227.44;6365796;22;20396;-61
2021/10/15 05:07:46;;;;;;;6.53;5.47;;;;;;;3.05;99.84;96212.00;6366505;22;20081;-61
2021/10/15 05:10:12;;;;;;;5.60;5.15;;;;;;;3.07;99.44;96218.81;6365753;22;20423;-60
2021/10/15 05:12:39;;;;;;;5.38;4.90;;;;;;;3.05;100.00;96212.84;6366443;22;20006;-61
2021/10/15 05:15:07;;;;;;;5.10;4.80;;;;;;;3.05;99.46;96212.00;6365126;22;20002;-61
2021/10/15 05:17:35;;;;;;;6.25;5.72;;;;;;;3.09;99.85;96218.72;6366482;22;20016;-61
2021/10/15 05:20:00;;;;;;;6.10;5.60;;;;;;;3.07;99.35;96213.59;6366377;22;20014;-62
2021/10/15 05:22:26;;;;;;;7.10;6.40;;;;;;;2.98;99.88;96219.28;6364081;22;20003;-61
2021/10/15 05:24:51;;;;;;;5.95;5.45;;;;;;;2.93;100.00;96213.50;6366068;22;20002;-61
2021/10/15 05:27:17;;;;;;;7.25;5.78;;;;;;;2.95;100.00;96220.31;6365760;22;20081;-61
2021/10/15 05:29:47;;;;;;;6.85;5.90;;;;;;;2.94;100.00;96212.56;6366366;22;20007;-61
2021/10/15 05:32:13;;;;;;;6.97;6.28;;;;;;;2.92;100.00;96209.22;6366449;22;20006;-60
2021/10/15 05:34:39;;;;;;;6.15;5.57;;;;;;;2.93;100.00;96203.94;6365991;22;20051;-61
2021/10/15 05:37:04;;;;;;;9.18;5.45;;;;;;;2.96;100.00;96201.19;6366786;22;20446;-61
2021/10/15 05:39:29;;;;;;;6.63;6.03;;;;;;;2.94;100.00;96202.16;6366168;22;20006;-61
2021/10/15 05:41:55;;;;;;;10.10;5.78;;;;;;;2.94;100.00;96196.97;6365816;22;20004;-61
2021/10/15 05:44:20;;;;;;;7.43;6.05;;;;;;;2.88;100.00;96203.38;6365365;22;19999;-60
2021/10/15 05:46:45;;;;;;;9.25;7.20;;;;;;;2.89;100.00;96204.19;6364568;22;20342;-60
2021/10/15 05:49:11;;;;;;;7.95;7.22;;;;;;;2.86;100.00;96195.63;6365391;22;20049;-60
2021/10/15 05:51:40;;;;;;;8.52;6.60;;;;;;;2.90;100.00;96192.84;6365461;22;20069;-60
2021/10/15 05:54:08;;;;;;;9.95;7.05;;;;;;;2.88;100.00;96198.16;6364686;22;20441;-60
2021/10/15 05:59:04;;;;;;;12.90;11.55;;;;;;;2.88;100.00;96199.91;6364983;22;20014;-61
2021/10/15 06:01:31;;;;;;;11.95;10.57;;;;;;;2.90;100.00;96200.66;6365116;22;20349;-60
2021/10/15 06:04:40;;;;;;;14.60;11.05;;;;;;;2.93;100.00;96193.53;6364764;22;20003;-60
2021/10/15 06:15:28;;;;;;;11.77;9.93;;;;;;;2.89;99.09;96209.38;6299967;22;20357;-61
2021/10/15 06:17:55;;;;;;;11.55;8.80;;;;;;;2.94;98.87;96209.97;6342788;22;20014;-61
2021/10/15 06:20:20;;;;;;;9.65;8.85;;;;;;;2.95;99.63;96209.91;6365942;22;20044;-61
2021/10/15 06:22:46;;;;;;;9.60;8.60;;;;;;;2.95;99.32;96207.31;6365773;22;20006;-61
2021/10/15 06:25:11;;;;;;;9.43;8.65;;;;;;;2.96;99.44;96202.94;6365961;22;20345;-61
2021/10/15 06:27:36;;;;;;;11.38;9.88;;;;;;;2.95;100.00;96214.25;6365949;22;19998;-61
2021/10/15 06:30:03;;;;;;;16.30;10.23;;;;;;;2.95;99.79;96211.66;6365802;22;20393;-61
2021/10/15 06:32:29;;;;;;;10.10;9.10;;;;;;;3.00;99.37;96214.88;6365991;22;20044;-61
2021/10/15 06:34:54;;;;;;;11.70;10.00;;;;;;;3.04;99.89;96212.91;6365510;22;20003;-61
2021/10/15 06:37:19;;;;;;;11.90;10.70;;;;;;;3.06;99.98;96217.13;6365490;22;20002;-60
2021/10/15 06:39:45;;;;;;;12.05;10.35;;;;;;;3.08;100.00;96214.44;6363383;22;20346;-61
2021/10/15 06:42:10;;;;;;;15.95;10.32;;;;;;;3.13;100.00;96215.03;6364227;22;19999;-61
2021/10/15 06:44:36;;;;;;;17.05;10.32;;;;;;;3.15;100.00;96213.19;6365163;22;20030;-61
2021/10/15 06:47:01;;;;;;;17.83;11.07;;;;;;;3.14;100.00;96204.53;6360149;22;20330;-61
2021/10/15 06:49:26;;;;;;;15.68;10.38;;;;;;;3.15;100.00;96210.59;6367410;22;20006;-61
2021/10/15 06:51:52;;;;;;;12.15;10.95;;;;;;;3.20;100.00;96203.38;6367444;22;20089;-61
2021/10/15 06:54:17;;;;;;;11.52;10.13;;;;;;;3.23;100.00;96210.19;6365877;22;20026;-60
2021/10/15 06:56:43;;;;;;;14.05;9.15;;;;;;;3.23;100.00;96211.00;6364504;22;20488;-61
2021/10/15 06:59:08;;;;;;;13.65;9.02;;;;;;;3.25;100.00;96209.16;6367027;22;20009;-61
2021/10/15 07:01:34;;;;;;;9.20;7.88;;;;;;;3.33;100.00;96210.53;6365386;22;20006;-61
2021/10/15 07:04:00;;;;;;;9.00;8.10;;;;;;;3.35;100.00;96217.31;6367239;22;19998;-61
2021/10/15 07:06:25;;;;;;;9.85;8.23;;;;;;;3.37;100.00;96210.25;6366399;22;20034;-61
2021/10/15 07:08:51;;;;;;;12.38;9.02;;;;;;;3.35;100.00;96206.06;6367174;22;20342;-61
2021/10/15 07:11:17;;;;;;;8.38;7.60;;;;;;;3.35;100.00;96212.09;6367213;22;20010;-61
2021/10/15 07:13:42;;;;;;;12.30;8.50;;;;;;;3.38;100.00;96208.50;6367186;22;20006;-61
2021/10/15 07:16:10;;;;;;;12.35;8.70;;;;;;;3.40;100.00;96211.84;6366227;22;19998;-61
2021/10/15 07:18:38;;;;;;;12.88;8.77;;;;;;;3.43;100.00;96211.69;6365041;22;20014;-61
2021/10/15 07:21:04;;;;;;;12.43;8.52;;;;;;;3.47;100.00;96217.56;6367068;22;20007;-61
2021/10/15 07:23:29;;;;;;;9.65;8.40;;;;;;;3.46;100.00;96214.09;6367146;22;20020;-61
2021/10/15 07:25:56;;;;;;;12.75;8.93;;;;;;;3.48;100.00;96217.47;6367163;22;20418;-61
2021/10/15 07:28:22;;;;;;;10.98;9.85;;;;;;;3.51;100.00;96221.66;6367032;22;20018;-61
2021/10/15 07:30:49;;;;;;;13.75;8.88;;;;;;;3.53;100.00;96222.41;6367139;22;20391;-61
2021/10/15 07:33:15;;;;;;;12.50;8.85;;;;;;;3.55;100.00;96229.22;6366859;22;20002;-61
2021/10/15 07:35:41;;;;;;;11.95;10.13;;;;;;;3.59;100.00;96232.47;6366326;22;20005;-60
2021/10/15 07:38:06;;;;;;;11.50;10.30;;;;;;;3.63;100.00;96233.97;6365396;22;20294;-61
2021/10/15 07:40:32;;;;;;;12.00;10.60;;;;;;;3.66;100.00;96235.59;6365253;22;20014;-60
2021/10/15 07:42:58;;;;;;;13.25;11.68;;;;;;;3.71;100.00;96233.56;6365389;22;20111;-61
2021/10/15 07:45:26;;;;;;;13.13;11.88;;;;;;;3.72;100.00;96235.25;6364753;22;20020;-60
2021/10/15 07:47:51;;;;;;;13.18;11.43;;;;;;;3.80;100.00;96227.00;6366217;22;20011;-60
2021/10/15 07:50:17;;;;;;;11.20;10.02;;;;;;;3.90;100.00;96224.72;6365734;22;20025;-60
2021/10/15 07:52:42;;;;;;;14.05;12.55;;;;;;;4.03;100.00;96222.25;6365269;22;20006;-60
2021/10/15 07:55:09;;;;;;;13.18;11.07;;;;;;;4.20;100.00;96223.84;6365920;22;20045;-60
2021/10/15 07:57:35;;;;;;;15.80;12.90;;;;;;;4.34;100.00;96223.06;6364837;22;20062;-61
2021/10/15 08:00:00;;;;;;;12.50;10.95;;;;;;;4.46;100.00;96214.50;6366514;22;20433;-60
2021/10/15 08:02:26;;;;;;;15.30;10.23;;;;;;;4.62;100.00;96216.22;6365755;22;20007;-60
2021/10/15 08:04:51;;;;;;;10.35;9.27;;;;;;;4.73;100.00;96216.38;6366039;22;20350;-60
2021/10/15 08:07:17;;;;;;;9.27;8.43;;;;;;;4.91;100.00;96213.59;6365202;22;20008;-61
2021/10/15 08:09:42;;;;;;;8.93;7.90;;;;;;;5.06;100.00;96207.44;6366026;22;20585;-60
2021/10/15 08:12:08;;;;;;;8.60;7.88;;;;;;;5.15;100.00;96212.06;6365964;22;20350;-60
2021/10/15 08:14:33;;;;;;;7.60;6.70;;;;;;;5.21;100.00;96215.25;6366818;22;20094;-60
2021/10/15 08:16:59;;;;;;;7.93;7.18;;;;;;;5.28;100.00;96212.13;6366601;22;20009;-60
2021/10/15 08:19:24;;;;;;;7.43;6.82;;;;;;;5.29;100.00;96215.59;6366231;22;20015;-60
2021/10/15 08:21:49;;;;;;;6.88;6.18;;;;;;;5.39;100.00;96198.41;6366443;22;20003;-61
2021/10/15 08:24:15;;;;;;;7.00;5.43;;;;;;;5.44;100.00;96201.59;6365666;22;19998;-60
2021/10/15 08:26:41;;;;;;;6.55;5.45;;;;;;;5.50;100.00;96205.56;6364614;22;20346;-60
2021/10/15 08:29:07;;;;;;;6.28;5.28;;;;;;;5.60;100.00;96195.38;6366599;22;20074;-61
2021/10/15 08:31:33;;;;;;;7.35;5.13;;;;;;;5.71;99.95;96205.13;6366543;22;19998;-61
2021/10/15 08:33:58;;;;;;;6.20;5.65;;;;;;;5.83;99.70;96199.09;6366164;22;20633;-61
2021/10/15 08:36:24;;;;;;;5.82;5.32;;;;;;;5.93;99.74;96203.72;6365578;22;20323;-61
2021/10/15 08:38:50;;;;;;;9.57;5.28;;;;;;;6.02;99.46;96201.38;6365236;22;20006;-61
2021/10/15 08:41:26;;;;;;;5.60;5.10;;;;;;;6.16;98.42;96192.63;6365651;22;20452;-61
2021/10/15 08:43:53;;;;;;;5.18;4.72;;;;;;;6.32;98.17;96190.78;6365926;22;20392;-61
2021/10/15 08:46:21;;;;;;;5.93;5.53;;;;;;;6.40;97.59;96194.53;6364499;22;19998;-61
2021/10/15 08:48:47;;;;;;;4.85;4.40;;;;;;;6.50;97.25;96192.13;6364662;22;20002;-61
2021/10/15 08:51:14;;;;;;;8.68;4.47;;;;;;;6.61;97.19;96180.09;6365020;22;20005;-61
2021/10/15 08:53:55;;;;;;;5.82;4.35;;;;;;;6.78;96.99;96177.16;6366345;22;20002;-61
2021/10/15 08:56:23;;;;;;;4.55;4.25;;;;;;;6.85;95.83;96177.56;6365529;22;20081;-61
2021/10/15 08:58:55;;;;;;;4.50;4.20;;;;;;;6.95;95.81;96164.66;6364724;22;20002;-61
2021/10/15 09:01:20;;;;;;;4.90;4.35;;;;;;;7.01;95.87;96156.41;6365857;22;20006;-61
2021/10/15 09:03:45;;;;;;;4.07;3.80;;;;;;;7.09;95.91;96161.09;6366096;22;20547;-61
2021/10/15 09:06:12;;;;;;;4.85;4.43;;;;;;;7.21;95.70;96162.81;6364514;22;20379;-61
2021/10/15 09:08:44;;;;;;;4.30;3.90;;;;;;;7.30;94.56;96159.56;6365899;22;20025;-61
2021/10/15 09:11:38;;;;;;;4.20;3.90;;;;;;;7.36;93.63;96150.41;6365598;22;20040;-61
2021/10/15 09:14:06;;;;;;;10.70;4.95;;;;;;;7.47;93.56;96152.25;6365629;22;20032;-60
2021/10/15 09:16:55;;;;;;;4.18;3.88;;;;;;;7.57;91.83;96150.66;6363922;22;20025;-61
2021/10/15 09:19:23;;;;;;;3.90;3.67;;;;;;;7.67;92.22;96152.56;6364158;22;20440;-60
2021/10/15 09:22:28;;;;;;;3.88;3.58;;;;;;;7.79;90.50;96149.06;6365545;22;20006;-60
2021/10/15 09:24:59;;;;;;;4.68;4.38;;;;;;;7.94;91.07;96148.84;6350534;22;20013;-61
2021/10/15 09:27:38;;;;;;;4.22;3.83;;;;;;;7.99;90.23;96152.81;6365403;22;20422;-61
2021/10/15 09:30:13;;;;;;;4.40;4.10;;;;;;;8.10;90.46;96156.44;6366204;22;20010;-61
2021/10/15 09:32:41;;;;;;;5.30;4.80;;;;;;;8.19;89.38;96152.28;6365516;22;20005;-61
2021/10/15 09:35:08;;;;;;;3.85;3.50;;;;;;;8.29;87.04;96148.84;6365437;22;20071;-61
2021/10/15 09:37:36;;;;;;;4.00;3.70;;;;;;;8.39;86.92;96148.97;6365163;22;20051;-61
2021/10/15 09:40:05;;;;;;;4.10;3.80;;;;;;;8.54;86.90;96143.53;6365824;22;20085;-62
2021/10/15 09:42:32;;;;;;;4.00;3.70;;;;;;;8.56;86.54;96144.25;6365829;22;19998;-61
2021/10/15 09:45:14;;;;;;;5.47;4.18;;;;;;;8.68;87.22;96138.06;6364700;22;20698;-61
2021/10/15 09:47:40;;;;;;;4.30;3.92;;;;;;;8.79;85.55;96133.75;6365464;22;20390;-61
2021/10/15 09:50:07;;;;;;;4.35;3.95;;;;;;;8.88;85.57;96135.69;6362811;22;20038;-61
2021/10/15 09:52:33;;;;;;;6.57;4.30;;;;;;;8.99;85.14;96134.81;6365807;22;19998;-61
2021/10/15 09:55:02;;;;;;;4.15;3.80;;;;;;;9.08;84.49;96138.53;6365444;22;20003;-61
2021/10/15 09:57:30;;;;;;;5.10;3.60;;;;;;;9.19;84.01;96135.03;6364059;22;20405;-61
2021/10/15 09:59:57;;;;;;;10.85;3.75;;;;;;;9.26;83.21;96128.34;6365776;22;20002;-61
2021/10/15 10:02:23;;;;;;;6.05;3.85;;;;;;;9.30;81.81;96125.34;6365190;22;19994;-61
2021/10/15 10:04:50;;;;;;;3.90;3.53;;;;;;;9.37;81.48;96123.03;6364230;22;20002;-61
2021/10/15 10:07:17;;;;;;;3.40;3.20;;;;;;;9.51;81.09;96124.56;6364681;22;20073;-61
2021/10/15 10:09:43;;;;;;;3.65;3.45;;;;;;;9.61;80.64;96111.47;6364286;22;20446;-61
2021/10/15 10:12:11;;;;;;;4.28;3.88;;;;;;;9.69;80.48;96109.06;6364588;22;20079;-61
2021/10/15 10:14:36;;;;;;;5.32;3.22;;;;;;;9.87;79.91;96108.53;6364113;22;19998;-61
2021/10/15 10:17:03;;;;;;;5.40;3.55;;;;;;;9.99;78.99;96096.16;6363867;22;20013;-61
2021/10/15 10:19:33;;;;;;;3.80;3.60;;;;;;;10.13;77.75;96084.47;6362970;22;20010;-61
2021/10/15 10:21:59;;;;;;;5.68;3.50;;;;;;;10.24;77.39;96089.63;6363695;22;20066;-60
2021/10/15 10:24:31;;;;;;;3.13;2.92;;;;;;;10.34;76.26;96083.59;6364270;22;20021;-61
2021/10/15 10:26:57;;;;;;;3.20;3.00;;;;;;;10.45;75.35;96078.28;6363037;22;20013;-61
2021/10/15 10:29:23;;;;;;;3.20;3.00;;;;;;;10.53;74.36;96074.97;6363643;22;20002;-61
2021/10/15 10:31:51;;;;;;;6.57;3.08;;;;;;;10.64;73.58;96080.16;6364134;22;20002;-61
2021/10/15 10:34:25;;;;;;;3.38;2.83;;;;;;;10.75;72.18;96074.78;6364228;22;20023;-61
2021/10/15 10:37:10;;;;;;;2.65;2.45;;;;;;;10.91;70.51;96072.63;6363241;22;20009;-61
2021/10/15 10:39:37;;;;;;;3.00;2.75;;;;;;;10.99;70.99;96072.78;6364072;22;20430;-61
2021/10/15 10:42:05;;;;;;;5.80;2.47;;;;;;;11.10;70.70;96062.13;6365534;22;20006;-61
2021/10/15 10:44:57;;;;;;;2.85;2.65;;;;;;;11.35;69.21;96061.75;6363612;22;20434;-61
2021/10/15 10:47:25;;;;;;;2.90;2.55;;;;;;;11.56;70.29;96059.81;6364215;22;20386;-61
2021/10/15 10:50:00;;;;;;;3.60;2.92;;;;;;;11.78;67.91;96052.56;6362217;22;20021;-61
2021/10/15 10:52:25;;;;;;;2.70;2.55;;;;;;;12.03;69.79;96050.34;6364201;22;20033;-61
2021/10/15 10:54:50;;;;;;;3.30;3.05;;;;;;;12.36;68.42;96045.50;6363834;22;20430;-61
2021/10/15 10:57:19;;;;;;;5.55;3.40;;;;;;;12.88;69.54;96039.72;6364984;22;20002;-61
2021/10/15 10:59:46;;;;;;;7.57;3.58;;;;;;;13.34;64.56;96036.22;6364578;22;20010;-61
2021/10/15 11:02:11;;;;;;;4.35;3.58;;;;;;;13.59;63.89;96039.13;6363858;22;20047;-61
2021/10/15 11:04:37;;;;;;;4.18;3.72;;;;;;;13.63;62.56;96044.94;6364032;22;20007;-61
2021/10/15 11:07:05;;;;;;;3.17;2.97;;;;;;;13.91;62.60;96035.09;6364816;22;20426;-61
2021/10/15 11:09:41;;;;;;;2.75;2.55;;;;;;;14.36;62.24;96038.50;6363039;22;20030;-61
2021/10/15 11:12:08;;;;;;;2.80;2.60;;;;;;;14.41;61.18;96030.09;6364332;22;20006;-61
2021/10/15 11:14:55;;;;;;;2.50;2.30;;;;;;;14.44;60.19;96025.31;6364918;22;19994;-61
2021/10/15 11:17:29;;;;;;;2.92;2.72;;;;;;;14.71;59.57;96014.72;6363995;22;20414;-61
2021/10/15 11:20:10;;;;;;;2.40;2.30;;;;;;;14.79;56.56;96014.72;6362909;22;20063;-61
2021/10/15 11:22:38;;;;;;;2.97;2.70;;;;;;;14.66;57.84;96011.66;6364622;22;20017;-61
2021/10/15 11:25:06;;;;;;;2.97;2.78;;;;;;;14.51;59.12;96009.63;6364807;22;19999;-61
2021/10/15 11:27:32;;;;;;;5.03;2.50;;;;;;;14.35;60.73;96009.53;6364410;22;19999;-61
2021/10/15 11:29:59;;;;;;;3.38;2.75;;;;;;;14.27;61.40;96003.22;6363837;22;20030;-61
2021/10/15 11:32:43;;;;;;;4.80;2.97;;;;;;;14.10;62.10;96001.47;6364860;22;20009;-61
2021/10/15 11:35:18;;;;;;;7.43;2.88;;;;;;;14.09;60.03;95999.81;6366586;22;20380;-61
2021/10/15 11:37:48;;;;;;;3.63;3.33;;;;;;;14.20;60.23;95993.41;6365603;22;20002;-61
2021/10/15 11:40:27;;;;;;;3.67;3.47;;;;;;;14.03;62.50;95988.84;6365911;22;20006;-61
2021/10/15 11:43:04;;;;;;;5.47;3.42;;;;;;;13.87;62.97;95986.09;6364508;22;20498;-61
2021/10/15 11:45:33;;;;;;;4.30;3.85;;;;;;;13.86;63.39;95977.31;6364814;22;20006;-61
2021/10/15 11:48:02;;;;;;;4.18;3.72;;;;;;;13.89;64.52;95976.19;6365942;22;20327;-61